sensor_id;sensor_type;location;lat;lon;timestamp;P1;durP1;ratioP1;P2;durP2;ratioP2
37339;SDS011;23223;51.006;7.610;2023-11-18T00:00:22;13.82;;;9.45;;
37339;SDS011;23223;51.006;7.610;2023-11-18T00:02:48;18.50;;;10.63;;
37339;SDS011;23223;51.006;7.610;2023-11-18T00:05:14;15.63;;;9.27;;
37339;SDS011;23223;51.006;7.610;2023-11-18T00:07:40;11.10;;;7.45;;
37339;SDS011;23223;51.006;7.610;2023-11-18T00:10:06;9.80;;;6.70;;
37339;SDS011;23223;51.006;7.610;2023-11-18T00:12:33;11.43;;;7.95;;
37339;SDS011;23223;51.006;7.610;2023-11-18T00:15:00;9.68;;;7.53;;
37339;SDS011;23223;51.006;7.610;2023-11-18T00:17:29;17.85;;;10.02;;
37339;SDS011;23223;51.006;7.610;2023-11-18T00:19:55;14.25;;;9.95;;
37339;SDS011;23223;51.006;7.610;2023-11-18T00:22:21;9.85;;;6.75;;
37339;SDS011;23223;51.006;7.610;2023-11-18T00:24:47;18.05;;;8.02;;
37339;SDS011;23223;51.006;7.610;2023-11-18T00:27:12;10.85;;;7.28;;
37339;SDS011;23223;51.006;7.610;2023-11-18T00:29:40;10.48;;;6.70;;
37339;SDS011;23223;51.006;7.610;2023-11-18T00:32:06;12.80;;;6.38;;
37339;SDS011;23223;51.006;7.610;2023-11-18T00:34:32;12.13;;;6.82;;
37339;SDS011;23223;51.006;7.610;2023-11-18T00:36:58;10.52;;;6.90;;
37339;SDS011;23223;51.006;7.610;2023-11-18T00:39:27;13.02;;;7.22;;
37339;SDS011;23223;51.006;7.610;2023-11-18T00:41:53;9.90;;;7.18;;
37339;SDS011;23223;51.006;7.610;2023-11-18T00:44:20;9.00;;;5.93;;
37339;SDS011;23223;51.006;7.610;2023-11-18T00:46:46;8.85;;;6.57;;
37339;SDS011;23223;51.006;7.610;2023-11-18T00:49:12;10.93;;;6.65;;
37339;SDS011;23223;51.006;7.610;2023-11-18T00:51:38;9.98;;;6.55;;
37339;SDS011;23223;51.006;7.610;2023-11-18T00:54:04;7.15;;;5.25;;
37339;SDS011;23223;51.006;7.610;2023-11-18T00:56:31;8.77;;;6.40;;
37339;SDS011;23223;51.006;7.610;2023-11-18T00:58:57;7.80;;;5.38;;
37339;SDS011;23223;51.006;7.610;2023-11-18T01:01:23;8.15;;;6.30;;
37339;SDS011;23223;51.006;7.610;2023-11-18T01:03:48;7.13;;;5.35;;
37339;SDS011;23223;51.006;7.610;2023-11-18T01:06:14;8.65;;;6.63;;
37339;SDS011;23223;51.006;7.610;2023-11-18T01:08:43;7.72;;;5.97;;
37339;SDS011;23223;51.006;7.610;2023-11-18T01:11:10;9.40;;;5.57;;
37339;SDS011;23223;51.006;7.610;2023-11-18T01:13:35;11.35;;;8.43;;
37339;SDS011;23223;51.006;7.610;2023-11-18T01:16:01;12.05;;;8.68;;
37339;SDS011;23223;51.006;7.610;2023-11-18T01:18:27;10.38;;;7.05;;
37339;SDS011;23223;51.006;7.610;2023-11-18T01:20:53;18.48;;;11.10;;
37339;SDS011;23223;51.006;7.610;2023-11-18T01:23:18;20.90;;;11.68;;
37339;SDS011;23223;51.006;7.610;2023-11-18T01:25:44;10.70;;;7.03;;
37339;SDS011;23223;51.006;7.610;2023-11-18T01:28:10;11.70;;;7.38;;
37339;SDS011;23223;51.006;7.610;2023-11-18T01:30:35;12.38;;;8.27;;
37339;SDS011;23223;51.006;7.610;2023-11-18T01:33:01;11.90;;;7.78;;
37339;SDS011;23223;51.006;7.610;2023-11-18T01:35:27;12.55;;;7.55;;
37339;SDS011;23223;51.006;7.610;2023-11-18T01:37:56;12.40;;;8.23;;
37339;SDS011;23223;51.006;7.610;2023-11-18T01:40:22;11.85;;;8.27;;
37339;SDS011;23223;51.006;7.610;2023-11-18T01:42:48;9.93;;;7.13;;
37339;SDS011;23223;51.006;7.610;2023-11-18T01:45:15;14.77;;;9.38;;
37339;SDS011;23223;51.006;7.610;2023-11-18T01:47:42;9.48;;;7.38;;
37339;SDS011;23223;51.006;7.610;2023-11-18T01:50:09;11.90;;;9.02;;
37339;SDS011;23223;51.006;7.610;2023-11-18T01:52:37;13.98;;;9.30;;
37339;SDS011;23223;51.006;7.610;2023-11-18T01:55:04;12.95;;;9.63;;
37339;SDS011;23223;51.006;7.610;2023-11-18T01:57:33;15.68;;;9.10;;
37339;SDS011;23223;51.006;7.610;2023-11-18T01:59:59;12.55;;;10.45;;
37339;SDS011;23223;51.006;7.610;2023-11-18T02:02:25;14.48;;;9.82;;
37339;SDS011;23223;51.006;7.610;2023-11-18T02:04:51;13.15;;;9.15;;
37339;SDS011;23223;51.006;7.610;2023-11-18T02:07:17;10.27;;;6.50;;
37339;SDS011;23223;51.006;7.610;2023-11-18T02:09:43;13.15;;;9.48;;
37339;SDS011;23223;51.006;7.610;2023-11-18T02:15:21;15.98;;;9.88;;
37339;SDS011;23223;51.006;7.610;2023-11-18T02:17:49;14.18;;;9.23;;
37339;SDS011;23223;51.006;7.610;2023-11-18T02:20:17;13.13;;;9.35;;
37339;SDS011;23223;51.006;7.610;2023-11-18T02:22:46;12.35;;;8.27;;
37339;SDS011;23223;51.006;7.610;2023-11-18T02:25:15;11.95;;;8.98;;
37339;SDS011;23223;51.006;7.610;2023-11-18T02:27:43;10.40;;;8.07;;
37339;SDS011;23223;51.006;7.610;2023-11-18T02:30:11;10.38;;;7.45;;
37339;SDS011;23223;51.006;7.610;2023-11-18T02:32:48;12.57;;;8.65;;
37339;SDS011;23223;51.006;7.610;2023-11-18T02:35:54;12.60;;;9.10;;
37339;SDS011;23223;51.006;7.610;2023-11-18T02:38:27;10.57;;;8.32;;
37339;SDS011;23223;51.006;7.610;2023-11-18T02:40:57;16.80;;;8.98;;
37339;SDS011;23223;51.006;7.610;2023-11-18T02:43:27;10.40;;;6.93;;
37339;SDS011;23223;51.006;7.610;2023-11-18T02:45:53;8.90;;;6.20;;
37339;SDS011;23223;51.006;7.610;2023-11-18T02:48:21;12.45;;;9.35;;
37339;SDS011;23223;51.006;7.610;2023-11-18T02:50:48;9.93;;;7.10;;
37339;SDS011;23223;51.006;7.610;2023-11-18T02:53:14;10.15;;;6.82;;
37339;SDS011;23223;51.006;7.610;2023-11-18T02:55:40;11.20;;;8.65;;
37339;SDS011;23223;51.006;7.610;2023-11-18T02:58:06;11.35;;;7.40;;
37339;SDS011;23223;51.006;7.610;2023-11-18T03:00:32;7.38;;;6.38;;
37339;SDS011;23223;51.006;7.610;2023-11-18T03:02:58;10.70;;;7.75;;
37339;SDS011;23223;51.006;7.610;2023-11-18T03:05:24;9.82;;;5.97;;
37339;SDS011;23223;51.006;7.610;2023-11-18T03:07:51;9.35;;;6.13;;
37339;SDS011;23223;51.006;7.610;2023-11-18T03:10:19;13.88;;;6.50;;
37339;SDS011;23223;51.006;7.610;2023-11-18T03:12:47;9.30;;;5.85;;
37339;SDS011;23223;51.006;7.610;2023-11-18T03:15:14;10.18;;;7.25;;
37339;SDS011;23223;51.006;7.610;2023-11-18T03:17:47;7.57;;;5.93;;
37339;SDS011;23223;51.006;7.610;2023-11-18T03:20:17;8.85;;;6.88;;
37339;SDS011;23223;51.006;7.610;2023-11-18T03:22:44;7.60;;;5.75;;
37339;SDS011;23223;51.006;7.610;2023-11-18T03:25:10;8.90;;;6.40;;
37339;SDS011;23223;51.006;7.610;2023-11-18T03:27:36;9.27;;;6.75;;
37339;SDS011;23223;51.006;7.610;2023-11-18T03:30:02;10.95;;;6.43;;
37339;SDS011;23223;51.006;7.610;2023-11-18T03:32:28;8.35;;;5.78;;
37339;SDS011;23223;51.006;7.610;2023-11-18T03:34:53;11.65;;;6.68;;
37339;SDS011;23223;51.006;7.610;2023-11-18T03:37:19;9.95;;;7.43;;
37339;SDS011;23223;51.006;7.610;2023-11-18T03:39:48;7.20;;;5.40;;
37339;SDS011;23223;51.006;7.610;2023-11-18T03:42:13;11.85;;;7.90;;
37339;SDS011;23223;51.006;7.610;2023-11-18T03:44:40;10.05;;;7.75;;
37339;SDS011;23223;51.006;7.610;2023-11-18T03:47:06;10.85;;;7.68;;
37339;SDS011;23223;51.006;7.610;2023-11-18T03:49:31;12.02;;;8.65;;
37339;SDS011;23223;51.006;7.610;2023-11-18T03:51:57;13.18;;;8.23;;
37339;SDS011;23223;51.006;7.610;2023-11-18T03:54:23;12.77;;;8.80;;
37339;SDS011;23223;51.006;7.610;2023-11-18T03:56:48;12.88;;;8.73;;
37339;SDS011;23223;51.006;7.610;2023-11-18T03:59:14;8.63;;;6.75;;
37339;SDS011;23223;51.006;7.610;2023-11-18T04:01:39;9.20;;;6.32;;
37339;SDS011;23223;51.006;7.610;2023-11-18T04:04:05;10.15;;;7.57;;
37339;SDS011;23223;51.006;7.610;2023-11-18T04:06:31;10.73;;;6.68;;
37339;SDS011;23223;51.006;7.610;2023-11-18T04:08:57;12.25;;;8.90;;
37339;SDS011;23223;51.006;7.610;2023-11-18T04:11:22;11.43;;;8.73;;
37339;SDS011;23223;51.006;7.610;2023-11-18T04:13:48;9.85;;;6.90;;
37339;SDS011;23223;51.006;7.610;2023-11-18T04:16:14;19.83;;;9.27;;
37339;SDS011;23223;51.006;7.610;2023-11-18T04:18:41;13.27;;;7.68;;
37339;SDS011;23223;51.006;7.610;2023-11-18T04:21:08;12.15;;;8.25;;
37339;SDS011;23223;51.006;7.610;2023-11-18T04:23:43;12.23;;;8.25;;
37339;SDS011;23223;51.006;7.610;2023-11-18T04:26:11;13.88;;;8.35;;
37339;SDS011;23223;51.006;7.610;2023-11-18T04:28:37;14.52;;;9.85;;
37339;SDS011;23223;51.006;7.610;2023-11-18T04:31:03;13.88;;;9.27;;
37339;SDS011;23223;51.006;7.610;2023-11-18T04:33:30;12.85;;;8.98;;
37339;SDS011;23223;51.006;7.610;2023-11-18T04:35:56;13.95;;;9.00;;
37339;SDS011;23223;51.006;7.610;2023-11-18T04:38:22;13.32;;;8.60;;
37339;SDS011;23223;51.006;7.610;2023-11-18T04:40:48;12.57;;;9.48;;
37339;SDS011;23223;51.006;7.610;2023-11-18T04:43:14;14.23;;;9.13;;
37339;SDS011;23223;51.006;7.610;2023-11-18T04:45:40;14.02;;;9.65;;
37339;SDS011;23223;51.006;7.610;2023-11-18T04:48:08;11.40;;;7.97;;
37339;SDS011;23223;51.006;7.610;2023-11-18T04:50:34;14.60;;;9.63;;
37339;SDS011;23223;51.006;7.610;2023-11-18T04:53:00;11.80;;;7.72;;
37339;SDS011;23223;51.006;7.610;2023-11-18T04:55:27;14.45;;;9.88;;
37339;SDS011;23223;51.006;7.610;2023-11-18T04:57:53;16.15;;;10.27;;
37339;SDS011;23223;51.006;7.610;2023-11-18T05:00:19;15.35;;;9.50;;
37339;SDS011;23223;51.006;7.610;2023-11-18T05:02:46;14.38;;;9.55;;
37339;SDS011;23223;51.006;7.610;2023-11-18T05:05:13;12.98;;;9.32;;
37339;SDS011;23223;51.006;7.610;2023-11-18T05:07:42;18.27;;;11.20;;
37339;SDS011;23223;51.006;7.610;2023-11-18T05:10:09;18.52;;;9.18;;
37339;SDS011;23223;51.006;7.610;2023-11-18T05:12:38;15.13;;;10.13;;
37339;SDS011;23223;51.006;7.610;2023-11-18T05:15:05;11.45;;;8.60;;
37339;SDS011;23223;51.006;7.610;2023-11-18T05:17:33;16.98;;;9.68;;
37339;SDS011;23223;51.006;7.610;2023-11-18T05:20:01;12.65;;;9.20;;
37339;SDS011;23223;51.006;7.610;2023-11-18T05:22:27;13.18;;;9.07;;
37339;SDS011;23223;51.006;7.610;2023-11-18T05:24:53;13.40;;;9.32;;
37339;SDS011;23223;51.006;7.610;2023-11-18T05:27:18;12.45;;;8.68;;
37339;SDS011;23223;51.006;7.610;2023-11-18T05:29:44;9.80;;;6.65;;
37339;SDS011;23223;51.006;7.610;2023-11-18T05:32:12;11.07;;;7.82;;
37339;SDS011;23223;51.006;7.610;2023-11-18T05:34:38;16.08;;;10.10;;
37339;SDS011;23223;51.006;7.610;2023-11-18T05:37:04;8.68;;;6.35;;
37339;SDS011;23223;51.006;7.610;2023-11-18T05:39:29;11.45;;;8.23;;
37339;SDS011;23223;51.006;7.610;2023-11-18T05:41:58;13.25;;;9.13;;
37339;SDS011;23223;51.006;7.610;2023-11-18T05:44:24;13.05;;;8.32;;
37339;SDS011;23223;51.006;7.610;2023-11-18T05:46:58;11.00;;;7.28;;
37339;SDS011;23223;51.006;7.610;2023-11-18T05:49:24;13.65;;;8.90;;
37339;SDS011;23223;51.006;7.610;2023-11-18T05:51:50;12.95;;;9.07;;
37339;SDS011;23223;51.006;7.610;2023-11-18T05:54:16;8.93;;;6.35;;
37339;SDS011;23223;51.006;7.610;2023-11-18T05:56:42;9.65;;;7.18;;
37339;SDS011;23223;51.006;7.610;2023-11-18T05:59:08;9.82;;;7.50;;
37339;SDS011;23223;51.006;7.610;2023-11-18T06:01:33;19.23;;;9.45;;
37339;SDS011;23223;51.006;7.610;2023-11-18T06:03:59;13.60;;;9.25;;
37339;SDS011;23223;51.006;7.610;2023-11-18T06:06:25;10.52;;;8.38;;
37339;SDS011;23223;51.006;7.610;2023-11-18T06:08:51;13.30;;;8.88;;
37339;SDS011;23223;51.006;7.610;2023-11-18T06:11:18;13.93;;;9.23;;
37339;SDS011;23223;51.006;7.610;2023-11-18T06:13:45;8.07;;;5.78;;
37339;SDS011;23223;51.006;7.610;2023-11-18T06:16:16;13.80;;;9.88;;
37339;SDS011;23223;51.006;7.610;2023-11-18T06:18:45;12.88;;;9.02;;
37339;SDS011;23223;51.006;7.610;2023-11-18T06:21:16;14.30;;;9.82;;
37339;SDS011;23223;51.006;7.610;2023-11-18T06:23:44;13.65;;;7.53;;
37339;SDS011;23223;51.006;7.610;2023-11-18T06:26:13;13.88;;;8.95;;
37339;SDS011;23223;51.006;7.610;2023-11-18T06:28:40;12.68;;;8.38;;
37339;SDS011;23223;51.006;7.610;2023-11-18T06:31:06;15.50;;;10.52;;
37339;SDS011;23223;51.006;7.610;2023-11-18T06:33:37;17.17;;;9.52;;
37339;SDS011;23223;51.006;7.610;2023-11-18T06:36:07;15.30;;;9.65;;
37339;SDS011;23223;51.006;7.610;2023-11-18T06:38:40;13.18;;;9.05;;
37339;SDS011;23223;51.006;7.610;2023-11-18T06:41:06;13.07;;;9.38;;
37339;SDS011;23223;51.006;7.610;2023-11-18T06:43:37;10.70;;;7.57;;
37339;SDS011;23223;51.006;7.610;2023-11-18T06:46:30;12.68;;;9.57;;
37339;SDS011;23223;51.006;7.610;2023-11-18T06:48:59;17.08;;;8.95;;
37339;SDS011;23223;51.006;7.610;2023-11-18T06:51:29;16.58;;;10.90;;
37339;SDS011;23223;51.006;7.610;2023-11-18T06:53:57;22.10;;;11.63;;
37339;SDS011;23223;51.006;7.610;2023-11-18T06:56:23;11.57;;;8.95;;
37339;SDS011;23223;51.006;7.610;2023-11-18T06:58:49;17.52;;;11.05;;
37339;SDS011;23223;51.006;7.610;2023-11-18T07:01:15;7.72;;;6.38;;
37339;SDS011;23223;51.006;7.610;2023-11-18T07:03:42;17.55;;;11.15;;
37339;SDS011;23223;51.006;7.610;2023-11-18T07:06:08;9.52;;;6.13;;
37339;SDS011;23223;51.006;7.610;2023-11-18T07:08:37;17.10;;;8.55;;
37339;SDS011;23223;51.006;7.610;2023-11-18T07:11:04;13.63;;;8.50;;
37339;SDS011;23223;51.006;7.610;2023-11-18T07:13:31;24.23;;;12.10;;
37339;SDS011;23223;51.006;7.610;2023-11-18T07:15:59;20.40;;;11.60;;
37339;SDS011;23223;51.006;7.610;2023-11-18T07:18:29;16.58;;;10.60;;
37339;SDS011;23223;51.006;7.610;2023-11-18T07:21:00;48.10;;;21.05;;
37339;SDS011;23223;51.006;7.610;2023-11-18T07:23:28;33.22;;;20.10;;
37339;SDS011;23223;51.006;7.610;2023-11-18T07:25:54;50.20;;;25.73;;
37339;SDS011;23223;51.006;7.610;2023-11-18T07:28:19;14.10;;;10.02;;
37339;SDS011;23223;51.006;7.610;2023-11-18T07:30:45;16.35;;;11.40;;
37339;SDS011;23223;51.006;7.610;2023-11-18T07:33:18;13.63;;;10.60;;
37339;SDS011;23223;51.006;7.610;2023-11-18T07:35:45;19.25;;;13.27;;
37339;SDS011;23223;51.006;7.610;2023-11-18T07:38:11;15.43;;;9.02;;
37339;SDS011;23223;51.006;7.610;2023-11-18T07:40:37;20.08;;;12.90;;
37339;SDS011;23223;51.006;7.610;2023-11-18T07:43:07;24.75;;;17.77;;
37339;SDS011;23223;51.006;7.610;2023-11-18T07:45:36;20.25;;;15.07;;
37339;SDS011;23223;51.006;7.610;2023-11-18T07:48:06;16.00;;;12.02;;
37339;SDS011;23223;51.006;7.610;2023-11-18T07:50:33;13.82;;;9.05;;
37339;SDS011;23223;51.006;7.610;2023-11-18T07:53:00;15.10;;;9.73;;
37339;SDS011;23223;51.006;7.610;2023-11-18T07:55:26;12.95;;;7.88;;
37339;SDS011;23223;51.006;7.610;2023-11-18T07:57:51;11.38;;;8.20;;
37339;SDS011;23223;51.006;7.610;2023-11-18T08:00:17;14.05;;;8.80;;
37339;SDS011;23223;51.006;7.610;2023-11-18T08:02:42;13.85;;;9.38;;
37339;SDS011;23223;51.006;7.610;2023-11-18T08:05:09;24.42;;;12.82;;
37339;SDS011;23223;51.006;7.610;2023-11-18T08:07:40;17.73;;;9.82;;
37339;SDS011;23223;51.006;7.610;2023-11-18T08:10:10;12.80;;;8.13;;
37339;SDS011;23223;51.006;7.610;2023-11-18T08:12:38;15.88;;;9.80;;
37339;SDS011;23223;51.006;7.610;2023-11-18T08:15:04;16.20;;;9.23;;
37339;SDS011;23223;51.006;7.610;2023-11-18T08:17:34;22.13;;;14.70;;
37339;SDS011;23223;51.006;7.610;2023-11-18T08:20:00;20.33;;;12.90;;
37339;SDS011;23223;51.006;7.610;2023-11-18T08:22:25;14.32;;;10.35;;
37339;SDS011;23223;51.006;7.610;2023-11-18T08:24:51;16.92;;;9.35;;
37339;SDS011;23223;51.006;7.610;2023-11-18T08:27:16;14.40;;;8.85;;
37339;SDS011;23223;51.006;7.610;2023-11-18T08:29:42;15.13;;;9.70;;
37339;SDS011;23223;51.006;7.610;2023-11-18T08:32:08;13.52;;;9.85;;
37339;SDS011;23223;51.006;7.610;2023-11-18T08:34:37;17.92;;;8.75;;
37339;SDS011;23223;51.006;7.610;2023-11-18T08:37:03;14.88;;;8.57;;
37339;SDS011;23223;51.006;7.610;2023-11-18T08:39:29;11.77;;;7.40;;
37339;SDS011;23223;51.006;7.610;2023-11-18T08:41:55;15.52;;;9.93;;
37339;SDS011;23223;51.006;7.610;2023-11-18T08:44:21;13.88;;;9.10;;
37339;SDS011;23223;51.006;7.610;2023-11-18T08:46:48;14.60;;;9.05;;
37339;SDS011;23223;51.006;7.610;2023-11-18T08:49:17;12.82;;;10.07;;
37339;SDS011;23223;51.006;7.610;2023-11-18T08:51:46;16.17;;;8.75;;
37339;SDS011;23223;51.006;7.610;2023-11-18T08:54:14;12.52;;;9.48;;
37339;SDS011;23223;51.006;7.610;2023-11-18T08:56:53;14.32;;;7.90;;
37339;SDS011;23223;51.006;7.610;2023-11-18T08:59:19;14.25;;;8.18;;
37339;SDS011;23223;51.006;7.610;2023-11-18T09:01:53;14.30;;;9.40;;
37339;SDS011;23223;51.006;7.610;2023-11-18T09:04:24;12.02;;;8.75;;
37339;SDS011;23223;51.006;7.610;2023-11-18T09:06:50;13.77;;;8.32;;
37339;SDS011;23223;51.006;7.610;2023-11-18T09:09:22;12.98;;;7.82;;
37339;SDS011;23223;51.006;7.610;2023-11-18T09:11:54;12.07;;;9.10;;
37339;SDS011;23223;51.006;7.610;2023-11-18T09:14:26;12.95;;;8.80;;
37339;SDS011;23223;51.006;7.610;2023-11-18T09:16:52;9.52;;;7.13;;
37339;SDS011;23223;51.006;7.610;2023-11-18T09:19:20;10.20;;;7.28;;
37339;SDS011;23223;51.006;7.610;2023-11-18T09:21:46;9.05;;;6.57;;
37339;SDS011;23223;51.006;7.610;2023-11-18T09:24:12;12.30;;;8.02;;
37339;SDS011;23223;51.006;7.610;2023-11-18T09:26:39;11.05;;;8.30;;
37339;SDS011;23223;51.006;7.610;2023-11-18T09:29:06;12.60;;;7.15;;
37339;SDS011;23223;51.006;7.610;2023-11-18T09:31:36;11.10;;;5.72;;
37339;SDS011;23223;51.006;7.610;2023-11-18T09:34:02;10.05;;;6.40;;
37339;SDS011;23223;51.006;7.610;2023-11-18T09:36:31;13.45;;;7.47;;
37339;SDS011;23223;51.006;7.610;2023-11-18T09:38:58;9.68;;;6.95;;
37339;SDS011;23223;51.006;7.610;2023-11-18T09:41:24;8.05;;;6.60;;
37339;SDS011;23223;51.006;7.610;2023-11-18T09:43:52;12.45;;;7.90;;
37339;SDS011;23223;51.006;7.610;2023-11-18T09:46:23;12.70;;;8.48;;
37339;SDS011;23223;51.006;7.610;2023-11-18T09:48:51;12.77;;;6.65;;
37339;SDS011;23223;51.006;7.610;2023-11-18T09:51:19;15.20;;;8.43;;
37339;SDS011;23223;51.006;7.610;2023-11-18T09:53:49;9.30;;;7.30;;
37339;SDS011;23223;51.006;7.610;2023-11-18T09:56:25;28.55;;;12.68;;
37339;SDS011;23223;51.006;7.610;2023-11-18T09:59:15;26.98;;;12.93;;
37339;SDS011;23223;51.006;7.610;2023-11-18T10:01:50;36.67;;;14.02;;
37339;SDS011;23223;51.006;7.610;2023-11-18T10:04:19;16.92;;;9.88;;
37339;SDS011;23223;51.006;7.610;2023-11-18T10:06:46;43.20;;;23.40;;
37339;SDS011;23223;51.006;7.610;2023-11-18T10:09:13;22.70;;;12.15;;
37339;SDS011;23223;51.006;7.610;2023-11-18T10:11:51;15.45;;;8.85;;
37339;SDS011;23223;51.006;7.610;2023-11-18T10:14:20;11.68;;;8.73;;
37339;SDS011;23223;51.006;7.610;2023-11-18T10:16:45;10.63;;;7.30;;
37339;SDS011;23223;51.006;7.610;2023-11-18T10:19:14;13.63;;;8.00;;
37339;SDS011;23223;51.006;7.610;2023-11-18T10:21:42;10.23;;;7.32;;
37339;SDS011;23223;51.006;7.610;2023-11-18T10:24:08;16.33;;;8.40;;
37339;SDS011;23223;51.006;7.610;2023-11-18T10:26:39;11.52;;;7.68;;
37339;SDS011;23223;51.006;7.610;2023-11-18T10:29:08;12.73;;;7.10;;
37339;SDS011;23223;51.006;7.610;2023-11-18T10:31:35;11.13;;;7.57;;
37339;SDS011;23223;51.006;7.610;2023-11-18T10:34:02;10.30;;;5.88;;
37339;SDS011;23223;51.006;7.610;2023-11-18T10:36:29;10.18;;;6.38;;
37339;SDS011;23223;51.006;7.610;2023-11-18T10:38:58;12.82;;;6.90;;
37339;SDS011;23223;51.006;7.610;2023-11-18T10:41:26;8.05;;;6.18;;
37339;SDS011;23223;51.006;7.610;2023-11-18T10:44:07;8.98;;;7.05;;
37339;SDS011;23223;51.006;7.610;2023-11-18T10:46:39;8.07;;;5.47;;
37339;SDS011;23223;51.006;7.610;2023-11-18T10:49:15;6.88;;;6.18;;
37339;SDS011;23223;51.006;7.610;2023-11-18T10:51:42;7.70;;;5.60;;
37339;SDS011;23223;51.006;7.610;2023-11-18T10:54:12;11.80;;;5.95;;
37339;SDS011;23223;51.006;7.610;2023-11-18T10:56:48;7.90;;;4.72;;
37339;SDS011;23223;51.006;7.610;2023-11-18T10:59:15;5.20;;;4.18;;
37339;SDS011;23223;51.006;7.610;2023-11-18T11:01:41;6.07;;;5.10;;
37339;SDS011;23223;51.006;7.610;2023-11-18T11:04:08;12.65;;;4.80;;
37339;SDS011;23223;51.006;7.610;2023-11-18T11:06:35;12.85;;;5.10;;
37339;SDS011;23223;51.006;7.610;2023-11-18T11:09:07;8.40;;;5.05;;
37339;SDS011;23223;51.006;7.610;2023-11-18T11:11:48;7.22;;;4.07;;
37339;SDS011;23223;51.006;7.610;2023-11-18T11:14:17;5.03;;;4.22;;
37339;SDS011;23223;51.006;7.610;2023-11-18T11:16:47;4.88;;;4.03;;
37339;SDS011;23223;51.006;7.610;2023-11-18T11:19:25;7.00;;;4.07;;
37339;SDS011;23223;51.006;7.610;2023-11-18T11:22:05;6.50;;;4.10;;
37339;SDS011;23223;51.006;7.610;2023-11-18T11:24:50;7.15;;;3.90;;
37339;SDS011;23223;51.006;7.610;2023-11-18T11:27:38;7.22;;;4.40;;
37339;SDS011;23223;51.006;7.610;2023-11-18T11:30:18;8.98;;;4.18;;
37339;SDS011;23223;51.006;7.610;2023-11-18T11:36:15;8.40;;;5.50;;
37339;SDS011;23223;51.006;7.610;2023-11-18T11:38:50;7.50;;;4.80;;
37339;SDS011;23223;51.006;7.610;2023-11-18T11:41:17;10.23;;;4.70;;
37339;SDS011;23223;51.006;7.610;2023-11-18T11:43:51;7.38;;;4.68;;
37339;SDS011;23223;51.006;7.610;2023-11-18T11:46:20;7.57;;;4.28;;
37339;SDS011;23223;51.006;7.610;2023-11-18T11:48:49;7.07;;;4.55;;
37339;SDS011;23223;51.006;7.610;2023-11-18T11:54:01;5.50;;;3.95;;
37339;SDS011;23223;51.006;7.610;2023-11-18T11:56:41;10.23;;;5.80;;
37339;SDS011;23223;51.006;7.610;2023-11-18T11:59:08;6.00;;;3.85;;
37339;SDS011;23223;51.006;7.610;2023-11-18T12:01:37;8.13;;;4.53;;
37339;SDS011;23223;51.006;7.610;2023-11-18T12:04:04;9.95;;;5.30;;
37339;SDS011;23223;51.006;7.610;2023-11-18T12:06:41;5.90;;;4.47;;
37339;SDS011;23223;51.006;7.610;2023-11-18T12:09:09;8.90;;;6.05;;
37339;SDS011;23223;51.006;7.610;2023-11-18T12:11:35;9.85;;;4.90;;
37339;SDS011;23223;51.006;7.610;2023-11-18T12:14:07;6.55;;;4.20;;
37339;SDS011;23223;51.006;7.610;2023-11-18T12:19:42;5.80;;;4.50;;
37339;SDS011;23223;51.006;7.610;2023-11-18T12:22:17;7.32;;;4.90;;
37339;SDS011;23223;51.006;7.610;2023-11-18T12:25:29;9.60;;;4.78;;
37339;SDS011;23223;51.006;7.610;2023-11-18T12:27:44;5.43;;;3.70;;
37339;SDS011;23223;51.006;7.610;2023-11-18T12:33:00;11.05;;;5.13;;
37339;SDS011;23223;51.006;7.610;2023-11-18T12:35:36;8.85;;;4.70;;
37339;SDS011;23223;51.006;7.610;2023-11-18T12:49:20;14.65;;;5.15;;
37339;SDS011;23223;51.006;7.610;2023-11-18T12:51:53;6.80;;;4.03;;
37339;SDS011;23223;51.006;7.610;2023-11-18T12:54:24;8.55;;;4.88;;
37339;SDS011;23223;51.006;7.610;2023-11-18T12:56:52;11.35;;;5.45;;
37339;SDS011;23223;51.006;7.610;2023-11-18T12:59:20;5.03;;;3.78;;
37339;SDS011;23223;51.006;7.610;2023-11-18T13:01:52;5.10;;;3.85;;
37339;SDS011;23223;51.006;7.610;2023-11-18T13:04:27;8.50;;;5.32;;
37339;SDS011;23223;51.006;7.610;2023-11-18T13:06:53;8.02;;;5.72;;
37339;SDS011;23223;51.006;7.610;2023-11-18T13:09:19;7.05;;;5.40;;
37339;SDS011;23223;51.006;7.610;2023-11-18T13:11:59;8.85;;;4.55;;
37339;SDS011;23223;51.006;7.610;2023-11-18T13:14:30;6.38;;;3.65;;
37339;SDS011;23223;51.006;7.610;2023-11-18T13:17:04;6.30;;;3.60;;
37339;SDS011;23223;51.006;7.610;2023-11-18T13:19:33;7.50;;;4.57;;
37339;SDS011;23223;51.006;7.610;2023-11-18T13:21:59;5.20;;;3.65;;
37339;SDS011;23223;51.006;7.610;2023-11-18T13:24:26;12.25;;;6.07;;
37339;SDS011;23223;51.006;7.610;2023-11-18T13:26:55;8.15;;;3.72;;
37339;SDS011;23223;51.006;7.610;2023-11-18T13:29:23;6.55;;;3.83;;
37339;SDS011;23223;51.006;7.610;2023-11-18T13:31:52;8.63;;;4.40;;
37339;SDS011;23223;51.006;7.610;2023-11-18T13:34:18;7.75;;;5.13;;
37339;SDS011;23223;51.006;7.610;2023-11-18T13:36:45;8.00;;;5.43;;
37339;SDS011;23223;51.006;7.610;2023-11-18T13:39:16;8.13;;;5.32;;
37339;SDS011;23223;51.006;7.610;2023-11-18T13:41:47;6.72;;;4.25;;
37339;SDS011;23223;51.006;7.610;2023-11-18T13:44:31;6.05;;;4.40;;
37339;SDS011;23223;51.006;7.610;2023-11-18T13:47:03;4.95;;;3.80;;
37339;SDS011;23223;51.006;7.610;2023-11-18T13:49:30;7.28;;;3.58;;
37339;SDS011;23223;51.006;7.610;2023-11-18T13:51:57;7.53;;;4.80;;
37339;SDS011;23223;51.006;7.610;2023-11-18T13:54:23;13.85;;;5.15;;
37339;SDS011;23223;51.006;7.610;2023-11-18T13:56:50;5.68;;;3.85;;
37339;SDS011;23223;51.006;7.610;2023-11-18T13:59:17;12.93;;;5.97;;
37339;SDS011;23223;51.006;7.610;2023-11-18T14:01:43;8.15;;;4.65;;
37339;SDS011;23223;51.006;7.610;2023-11-18T14:04:09;4.90;;;3.88;;
37339;SDS011;23223;51.006;7.610;2023-11-18T14:06:35;4.47;;;2.50;;
37339;SDS011;23223;51.006;7.610;2023-11-18T14:09:02;5.47;;;3.85;;
37339;SDS011;23223;51.006;7.610;2023-11-18T14:11:29;11.15;;;4.40;;
37339;SDS011;23223;51.006;7.610;2023-11-18T14:13:56;11.38;;;6.30;;
37339;SDS011;23223;51.006;7.610;2023-11-18T14:16:23;11.15;;;4.78;;
37339;SDS011;23223;51.006;7.610;2023-11-18T14:18:51;10.60;;;4.82;;
37339;SDS011;23223;51.006;7.610;2023-11-18T14:21:17;7.05;;;4.32;;
37339;SDS011;23223;51.006;7.610;2023-11-18T14:23:43;10.65;;;4.85;;
37339;SDS011;23223;51.006;7.610;2023-11-18T14:26:09;11.80;;;6.28;;
37339;SDS011;23223;51.006;7.610;2023-11-18T14:28:35;7.55;;;4.60;;
37339;SDS011;23223;51.006;7.610;2023-11-18T14:31:02;7.15;;;3.33;;
37339;SDS011;23223;51.006;7.610;2023-11-18T14:33:33;5.32;;;3.20;;
37339;SDS011;23223;51.006;7.610;2023-11-18T14:36:01;6.80;;;3.40;;
37339;SDS011;23223;51.006;7.610;2023-11-18T14:38:30;7.45;;;3.72;;
37339;SDS011;23223;51.006;7.610;2023-11-18T14:40:55;5.55;;;3.45;;
37339;SDS011;23223;51.006;7.610;2023-11-18T14:43:21;5.50;;;3.10;;
37339;SDS011;23223;51.006;7.610;2023-11-18T14:45:47;6.93;;;3.05;;
37339;SDS011;23223;51.006;7.610;2023-11-18T14:48:13;5.35;;;3.50;;
37339;SDS011;23223;51.006;7.610;2023-11-18T14:50:39;7.25;;;3.50;;
37339;SDS011;23223;51.006;7.610;2023-11-18T14:53:05;7.15;;;3.83;;
37339;SDS011;23223;51.006;7.610;2023-11-18T14:55:31;4.60;;;3.53;;
37339;SDS011;23223;51.006;7.610;2023-11-18T14:57:58;6.75;;;3.40;;
37339;SDS011;23223;51.006;7.610;2023-11-18T15:00:24;6.13;;;3.08;;
37339;SDS011;23223;51.006;7.610;2023-11-18T15:02:52;5.82;;;3.08;;
37339;SDS011;23223;51.006;7.610;2023-11-18T15:05:20;7.18;;;3.95;;
37339;SDS011;23223;51.006;7.610;2023-11-18T15:07:47;5.20;;;3.25;;
37339;SDS011;23223;51.006;7.610;2023-11-18T15:10:14;7.18;;;2.90;;